Аэропорт: Алматы. Алма-Ата

ICAO: UAAA

METAR:
2020-08-09 22:30:00
UAAA 092230Z VRB01MPS 9999 BKN050CB OVC100 20/14 Q1006 R23L/1///60 NOSIG
METAR:
2020-08-09 17:00:00
TAF UAAA 091700Z 0918/1018 20003G08MPS 9999 BKN050CB BKN100 TX32/1009Z TN16/1001Z TEMPO 0918/1004 26005G15MPS 5000 -TSRA BR TEMPO 1004/1014 30003G10MPS PROB40 TEMPO 1004/1014 TS TEMPO 1014/1018 16003MPS